Date,TemperatureHighF,TemperatureAvgF,TemperatureLowF,DewpointHighF,DewpointAvgF,DewpointLowF,HumidityHigh,HumidityAvg,HumidityLow,PressureMaxIn,PressureMinIn,WindSpeedMaxMPH,WindSpeedAvgMPH,GustSpeedMaxMPH,PrecipitationSumIn
2012-12-1,64,54,42,49,43,38,89,68,49,0.00,40.00,6,4,8,0.00
2012-12-2,69,57,50,56,48,43,91,73,46,0.00,40.00,5,3,10,0.00
2012-12-3,72,59,48,51,46,42,84,64,43,0.00,40.00,6,4,10,0.00
2012-12-4,72,61,53,52,48,47,86,64,44,0.00,40.00,4,3,10,0.00
2012-12-5,65,59,54,60,53,49,88,81,72,0.00,40.00,5,3,13,0.07
2012-12-6,54,49,46,49,33,-100,84,62,46,0.00,40.00,5,4,13,0.07
2012-12-7,58,49,42,48,43,34,98,81,65,0.00,40.00,4,2,10,0.00
2012-12-8,63,51,50,54,48,47,93,89,73,0.00,40.00,4,3,7,0.00
2012-12-9,63,59,55,59,57,54,99,93,80,0.00,40.00,3,2,6,0.10
2012-12-10,57,57,57,57,57,57,100,100,100,0.00,40.00,3,3,10,0.55
2012-12-11,57,45,40,57,41,36,100,85,62,0.00,40.00,7,4,10,0.03
2012-12-12,44,43,42,36,34,33,73,71,67,0.00,40.00,3,3,7,0.00
2012-12-13,54,46,37,34,30,25,82,54,39,0.00,40.00,5,3,10,0.00
2012-12-14,55,43,32,31,27,22,70,55,36,0.00,40.00,6,3,7,0.00
2012-12-15,58,47,39,39,34,28,71,61,44,0.00,40.00,4,3,6,0.00
2012-12-16,51,49,48,47,41,38,92,72,67,0.00,40.00,3,2,6,0.00
2012-12-18,57,50,43,41,29,22,87,48,25,0.00,40.00,6,4,18,0.01
2012-12-19,68,53,42,42,35,25,72,50,36,0.00,40.00,5,4,10,0.01
2012-12-20,51,46,37,47,42,27,100,86,67,0.00,40.00,8,4,22,1.72
2012-12-21,43,36,31,27,21,11,67,53,37,0.00,40.00,10,6,26,0.01
2012-12-22,59,44,33,12,6,-3,38,22,8,0.00,40.00,13,5,30,0.00
2012-12-23,58,46,35,34,18,4,58,33,22,0.00,40.00,6,4,11,0.00
2012-12-24,47,44,40,46,40,30,100,89,53,0.00,40.00,3,2,8,1.03
2012-12-25,47,44,39,47,44,39,100,99,93,0.00,40.00,6,4,16,0.19
2012-12-26,50,43,34,50,40,26,100,90,71,0.00,40.00,7,5,19,2.45
2012-12-27,51,40,30,32,28,24,82,64,41,0.00,40.00,6,3,13,0.13
2012-12-28,45,38,31,35,31,28,95,77,56,0.00,40.00,4,2,7,0.06
2012-12-29,52,39,33,43,32,18,99,77,54,0.00,40.00,8,4,16,0.35
2012-12-30,46,36,29,20,17,15,65,48,31,0.00,40.00,8,3,27,0.01
2012-12-31,54,41,30,25,21,19,69,45,26,0.00,40.00,5,4,9,0.00